Time;durP1;ratioP1;P1;durP2;ratioP2;P2;SDS_P1;SDS_P2;PMS_P1;PMS_P2;Temp;Humidity;BMP_temperature;BMP_pressure;BME280_temperature;BME280_humidity;BME280_pressure;Samples;Min_cycle;Max_cycle;Signal;HPM_P1;HPM_P2
2023/06/16 00:00:37;;;;;;;5.53;5.03;;;18.20;79.70;;;;;;6174612;23;20819;-86
2023/06/16 00:03:05;;;;;;;5.40;4.80;;;18.20;79.70;;;;;;6166423;23;20457;-85
2023/06/16 00:05:34;;;;;;;6.33;5.23;;;18.30;80.00;;;;;;6162655;23;20953;-85
2023/06/16 00:08:03;;;;;;;5.63;5.13;;;18.30;80.40;;;;;;6170123;23;20439;-86
2023/06/16 00:10:30;;;;;;;6.20;5.70;;;18.20;81.00;;;;;;6175865;23;20442;-85
2023/06/16 00:12:57;;;;;;;5.27;4.87;;;18.20;81.90;;;;;;6164986;23;20486;-85
2023/06/16 00:15:26;;;;;;;5.47;5.07;;;18.20;82.60;;;;;;6174539;23;20436;-85
2023/06/16 00:17:56;;;;;;;5.93;5.53;;;18.20;83.40;;;;;;6172609;23;20530;-85
2023/06/16 00:20:25;;;;;;;5.60;5.20;;;18.10;84.00;;;;;;6174563;23;20807;-86
2023/06/16 00:22:52;;;;;;;5.70;5.30;;;18.10;84.70;;;;;;6174834;23;20504;-86
2023/06/16 00:25:20;;;;;;;5.43;5.03;;;18.10;85.30;;;;;;6156134;23;20943;-85
2023/06/16 00:27:47;;;;;;;6.07;5.57;;;18.00;85.40;;;;;;6147579;23;20516;-85
2023/06/16 00:30:14;;;;;;;5.23;4.83;;;18.00;85.70;;;;;;6171630;23;20471;-85
2023/06/16 00:32:43;;;;;;;5.40;5.00;;;18.00;86.80;;;;;;6183759;23;20461;-85
2023/06/16 00:35:10;;;;;;;5.60;5.20;;;17.90;87.50;;;;;;6167537;23;20957;-86
2023/06/16 00:37:37;;;;;;;5.70;5.20;;;17.90;88.00;;;;;;6169326;23;20458;-85
2023/06/16 00:40:05;;;;;;;5.60;5.10;;;17.80;88.30;;;;;;6161876;23;20444;-85
2023/06/16 00:42:32;;;;;;;5.67;5.23;;;17.80;89.10;;;;;;6159021;23;20453;-85
2023/06/16 00:44:59;;;;;;;5.50;5.00;;;17.70;90.00;;;;;;6163719;23;20432;-85
2023/06/16 00:47:27;;;;;;;6.30;5.70;;;17.60;90.30;;;;;;6174458;23;20529;-86
2023/06/16 00:49:55;;;;;;;5.40;5.00;;;17.60;90.30;;;;;;6176366;23;20508;-85
2023/06/16 00:52:28;;;;;;;5.83;5.33;;;17.60;90.50;;;;;;6154417;23;20456;-85
2023/06/16 00:54:56;;;;;;;6.77;6.17;;;17.50;90.60;;;;;;6141212;23;20840;-85
2023/06/16 00:57:23;;;;;;;6.10;5.60;;;17.50;90.80;;;;;;6172616;23;20432;-86
2023/06/16 00:59:50;;;;;;;5.50;5.10;;;17.40;91.20;;;;;;6177315;23;20931;-85
2023/06/16 01:02:18;;;;;;;6.20;5.70;;;17.30;91.50;;;;;;6176378;23;20535;-85
2023/06/16 01:04:46;;;;;;;6.07;5.60;;;17.30;91.70;;;;;;6174495;23;21107;-85
2023/06/16 01:07:21;;;;;;;6.53;5.90;;;17.20;91.90;;;;;;6161242;23;20452;-86
2023/06/16 01:09:56;;;;;;;6.10;5.60;;;17.10;92.10;;;;;;6147035;23;20464;-86
2023/06/16 01:12:28;;;;;;;6.80;6.20;;;17.00;92.40;;;;;;6169990;23;20873;-85
2023/06/16 01:15:04;;;;;;;6.50;6.00;;;17.20;92.80;;;;;;6169838;23;20444;-86
2023/06/16 01:17:36;;;;;;;6.37;5.90;;;16.90;92.80;;;;;;6176290;23;20782;-86
2023/06/16 01:20:09;;;;;;;6.63;6.03;;;17.10;93.20;;;;;;6177484;23;20440;-85
2023/06/16 01:23:02;;;;;;;6.60;6.10;;;16.70;93.70;;;;;;6149980;23;20457;-85
2023/06/16 01:25:32;;;;;;;7.13;6.43;;;16.60;94.20;;;;;;6172771;23;20515;-85
2023/06/16 01:28:03;;;;;;;6.47;6.00;;;16.50;94.80;;;;;;6154923;23;20736;-86
2023/06/16 01:30:33;;;;;;;6.37;5.87;;;16.30;95.30;;;;;;6162037;23;20581;-86
2023/06/16 01:33:02;;;;;;;7.33;6.73;;;16.20;95.80;;;;;;6175975;23;20855;-86
2023/06/16 01:35:31;;;;;;;6.57;6.17;;;16.10;96.40;;;;;;6173235;23;20927;-85
2023/06/16 01:37:59;;;;;;;6.67;6.17;;;15.90;97.00;;;;;;6176142;23;20513;-86
2023/06/16 01:40:27;;;;;;;6.73;6.23;;;15.80;97.50;;;;;;6166223;23;20918;-86
2023/06/16 01:42:57;;;;;;;6.80;6.30;;;15.80;97.90;;;;;;6163504;23;20464;-86
2023/06/16 01:45:25;;;;;;;7.17;6.67;;;15.80;98.10;;;;;;6175637;23;20432;-86
2023/06/16 01:47:53;;;;;;;7.10;6.60;;;15.80;98.40;;;;;;6162885;23;20553;-86
2023/06/16 01:50:20;;;;;;;6.87;6.37;;;15.80;98.60;;;;;;6165830;23;20524;-86
2023/06/16 01:52:48;;;;;;;6.97;6.37;;;15.80;98.80;;;;;;6178398;23;20527;-86
2023/06/16 01:55:14;;;;;;;7.27;6.67;;;15.80;99.00;;;;;;6174679;23;20432;-86
2023/06/16 01:57:41;;;;;;;7.97;6.77;;;15.70;99.20;;;;;;6157617;23;20460;-85
2023/06/16 02:00:15;;;;;;;7.00;6.40;;;15.70;99.30;;;;;;6172636;23;21033;-86
2023/06/16 02:02:50;;;;;;;6.73;6.17;;;15.70;99.40;;;;;;6183697;23;20463;-86
2023/06/16 02:05:21;;;;;;;6.47;5.80;;;15.70;99.60;;;;;;6172730;23;20521;-86
2023/06/16 02:07:51;;;;;;;6.30;5.80;;;15.70;99.80;;;;;;6166806;23;20443;-85
2023/06/16 02:10:21;;;;;;;6.90;6.40;;;15.70;99.80;;;;;;6175481;23;20467;-86
2023/06/16 02:12:48;;;;;;;6.10;5.70;;;15.70;99.80;;;;;;6176543;23;20485;-85
2023/06/16 02:15:19;;;;;;;6.73;6.13;;;15.80;99.90;;;;;;6163676;23;20544;-85
2023/06/16 02:17:50;;;;;;;5.90;5.50;;;15.80;99.90;;;;;;6171356;23;20523;-85
2023/06/16 02:20:17;;;;;;;6.60;6.00;;;15.90;99.90;;;;;;6171389;23;20447;-84
2023/06/16 02:22:45;;;;;;;6.40;5.90;;;16.00;99.90;;;;;;6174338;23;20508;-86
2023/06/16 02:25:12;;;;;;;6.80;6.10;;;16.00;99.90;;;;;;6178338;23;20522;-85
2023/06/16 02:27:40;;;;;;;6.60;6.07;;;16.10;99.90;;;;;;6169701;23;20439;-85
2023/06/16 02:30:08;;;;;;;6.43;5.83;;;16.20;99.90;;;;;;6163017;23;20493;-85
2023/06/16 02:32:37;;;;;;;6.47;5.97;;;16.20;99.90;;;;;;6176288;23;20480;-85
2023/06/16 02:35:05;;;;;;;7.20;5.90;;;16.30;99.90;;;;;;6176837;23;20519;-85
2023/06/16 02:37:35;;;;;;;7.10;6.50;;;16.40;99.90;;;;;;6166477;23;20515;-85
2023/06/16 02:40:03;;;;;;;6.83;6.33;;;16.40;99.90;;;;;;6148687;23;20525;-85
2023/06/16 02:42:30;;;;;;;7.07;6.57;;;16.50;99.90;;;;;;6163313;23;20452;-85
2023/06/16 02:44:57;;;;;;;6.70;6.03;;;16.50;99.90;;;;;;6176622;23;20436;-85
2023/06/16 02:47:24;;;;;;;7.57;6.50;;;16.50;99.90;;;;;;6173278;23;20450;-85
2023/06/16 02:49:54;;;;;;;6.87;6.27;;;16.30;99.90;;;;;;6174924;23;20468;-85
2023/06/16 02:52:21;;;;;;;7.17;5.83;;;16.20;99.90;;;;;;6149879;23;20460;-85
2023/06/16 02:54:49;;;;;;;7.10;6.50;;;16.10;99.90;;;;;;6171522;23;20570;-85
2023/06/16 02:57:16;;;;;;;6.60;6.00;;;16.00;99.90;;;;;;6175715;23;20471;-84
2023/06/16 02:59:42;;;;;;;7.70;7.10;;;15.80;99.90;;;;;;6175741;23;20432;-84
2023/06/16 03:02:10;;;;;;;8.03;6.60;;;15.50;99.90;;;;;;6170523;23;20538;-84
2023/06/16 03:04:37;;;;;;;7.63;7.13;;;15.40;99.90;;;;;;6176687;23;20435;-84
2023/06/16 03:07:06;;;;;;;7.30;6.70;;;15.40;99.90;;;;;;6176747;23;20959;-86
2023/06/16 03:09:33;;;;;;;7.03;6.43;;;15.40;99.90;;;;;;6175816;23;20949;-85
2023/06/16 03:12:00;;;;;;;8.10;7.43;;;15.40;99.90;;;;;;6164140;23;20534;-84
2023/06/16 03:14:27;;;;;;;7.80;7.00;;;15.40;99.90;;;;;;6177317;23;20435;-84
2023/06/16 03:16:55;;;;;;;6.77;6.17;;;15.40;99.90;;;;;;6179733;23;20442;-85
2023/06/16 03:19:22;;;;;;;6.33;5.83;;;15.50;99.90;;;;;;6164849;23;20440;-85
2023/06/16 03:21:50;;;;;;;6.70;6.10;;;15.50;99.90;;;;;;6176887;23;20462;-84
2023/06/16 03:24:19;;;;;;;6.57;5.97;;;15.60;99.90;;;;;;6176159;23;20949;-85
2023/06/16 03:26:46;;;;;;;6.37;5.87;;;15.70;99.90;;;;;;6171013;23;20462;-85
2023/06/16 03:29:14;;;;;;;6.60;6.10;;;15.80;99.90;;;;;;6153418;23;21210;-85
2023/06/16 03:31:41;;;;;;;5.83;5.37;;;15.90;99.90;;;;;;6157755;23;20468;-85
2023/06/16 03:34:08;;;;;;;6.07;5.47;;;16.00;99.90;;;;;;6158260;23;20441;-85
2023/06/16 03:36:36;;;;;;;7.20;6.50;;;16.10;99.90;;;;;;6189515;23;20796;-85
2023/06/16 03:39:05;;;;;;;6.73;6.23;;;16.10;99.90;;;;;;6185565;23;20493;-86
2023/06/16 03:41:33;;;;;;;6.70;6.13;;;16.20;99.90;;;;;;6179535;23;20427;-85
2023/06/16 03:44:00;;;;;;;6.23;5.83;;;16.20;99.90;;;;;;6156009;23;20428;-85
2023/06/16 03:46:31;;;;;;;6.60;6.20;;;16.20;99.90;;;;;;6164377;23;20480;-85
2023/06/16 03:48:58;;;;;;;6.60;6.03;;;16.20;99.90;;;;;;6165710;23;20439;-85
2023/06/16 03:51:25;;;;;;;7.63;6.50;;;16.00;99.90;;;;;;6167619;23;20484;-85
2023/06/16 03:53:52;;;;;;;7.40;6.80;;;15.90;99.90;;;;;;6174906;23;20444;-85
2023/06/16 03:56:20;;;;;;;7.40;6.80;;;15.70;99.90;;;;;;6177256;23;20436;-85
2023/06/16 03:58:49;;;;;;;7.67;7.03;;;15.60;99.90;;;;;;6166309;23;20440;-81
2023/06/16 04:01:16;;;;;;;7.67;7.00;;;15.60;99.90;;;;;;6163325;23;20567;-80
2023/06/16 04:03:43;;;;;;;6.43;5.90;;;15.60;99.90;;;;;;6160129;23;20528;-79
2023/06/16 04:06:10;;;;;;;7.87;7.07;;;15.60;99.90;;;;;;6162072;23;20463;-79
2023/06/16 04:08:38;;;;;;;6.70;6.10;;;15.60;99.90;;;;;;6167523;23;20481;-79
2023/06/16 04:11:05;;;;;;;7.57;6.97;;;15.70;99.90;;;;;;6154058;23;20735;-79
2023/06/16 04:13:32;;;;;;;7.70;7.00;;;15.70;99.90;;;;;;6159244;23;20455;-80
2023/06/16 04:16:01;;;;;;;6.90;6.30;;;15.70;99.90;;;;;;6172878;23;20949;-79
2023/06/16 04:18:28;;;;;;;6.73;6.23;;;15.80;99.90;;;;;;6172626;23;20475;-78
2023/06/16 04:20:55;;;;;;;7.73;7.03;;;15.80;99.90;;;;;;6174765;23;20546;-74
2023/06/16 04:23:22;;;;;;;7.80;7.10;;;15.70;99.90;;;;;;6164951;23;20550;-84
2023/06/16 04:25:49;;;;;;;7.20;6.60;;;15.70;99.90;;;;;;6175632;23;20467;-85
2023/06/16 04:28:17;;;;;;;7.67;7.10;;;15.80;99.90;;;;;;6166007;23;20490;-87
2023/06/16 04:30:45;;;;;;;7.20;6.70;;;15.80;99.90;;;;;;6163433;23;20535;-81
2023/06/16 04:33:13;;;;;;;7.37;6.77;;;15.80;99.90;;;;;;6174961;23;20852;-84
2023/06/16 04:35:40;;;;;;;7.93;7.00;;;15.80;99.90;;;;;;6179047;23;20492;-84
2023/06/16 04:38:08;;;;;;;7.17;6.67;;;15.90;99.90;;;;;;6174122;23;21026;-82
2023/06/16 04:40:37;;;;;;;7.47;6.87;;;15.90;99.90;;;;;;6174118;23;21016;-83
2023/06/16 04:43:04;;;;;;;7.43;6.80;;;16.00;99.90;;;;;;6162226;23;20521;-87
2023/06/16 04:45:31;;;;;;;8.00;7.20;;;16.20;99.90;;;;;;6166552;23;20531;-82
2023/06/16 04:47:58;;;;;;;9.53;7.37;;;16.10;99.90;;;;;;6160585;23;20439;-81
2023/06/16 04:50:27;;;;;;;7.70;7.10;;;16.20;99.90;;;;;;6160228;23;20471;-81
2023/06/16 04:52:54;;;;;;;8.40;7.70;;;16.20;99.90;;;;;;6159677;23;20511;-82
2023/06/16 04:55:21;;;;;;;8.93;7.57;;;16.20;99.90;;;;;;6167171;23;22174;-81
2023/06/16 04:57:48;;;;;;;7.30;6.60;;;16.30;99.90;;;;;;6152880;23;20447;-83
2023/06/16 05:00:16;;;;;;;8.77;8.07;;;16.40;99.90;;;;;;6150915;23;20472;-79
2023/06/16 05:02:43;;;;;;;7.90;7.10;;;16.40;99.90;;;;;;6162139;23;20477;-79
2023/06/16 05:05:10;;;;;;;8.43;7.60;;;16.50;99.90;;;;;;6164069;23;20428;-78
2023/06/16 05:07:39;;;;;;;8.13;7.10;;;16.20;99.90;;;;;;6165219;23;20434;-78
2023/06/16 05:10:07;;;;;;;8.83;8.03;;;16.60;99.90;;;;;;6175004;23;20477;-79
2023/06/16 05:12:34;;;;;;;7.80;7.20;;;16.70;99.90;;;;;;6162161;23;20563;-78
2023/06/16 05:15:02;;;;;;;8.10;7.40;;;16.60;99.90;;;;;;6168995;23;20461;-79
2023/06/16 05:17:29;;;;;;;8.87;8.13;;;16.70;99.90;;;;;;6151629;23;20435;-79
2023/06/16 05:19:56;;;;;;;8.60;7.80;;;16.80;99.90;;;;;;6161935;23;20433;-79
2023/06/16 05:22:24;;;;;;;9.03;8.33;;;16.80;99.90;;;;;;6160876;23;20807;-79
2023/06/16 05:24:56;;;;;;;8.57;7.77;;;16.80;99.90;;;;;;6162900;23;20492;-78
2023/06/16 05:27:23;;;;;;;9.90;9.00;;;16.80;99.90;;;;;;6157828;23;20969;-79
2023/06/16 05:29:51;;;;;;;7.90;7.30;;;16.80;99.90;;;;;;6152611;23;20515;-73
2023/06/16 05:32:19;;;;;;;9.43;7.93;;;16.80;99.90;;;;;;6162735;23;20512;-78
2023/06/16 05:34:47;;;;;;;9.30;8.50;;;16.90;99.90;;;;;;6156305;23;20460;-83
2023/06/16 05:37:16;;;;;;;8.90;8.10;;;16.90;99.90;;;;;;6170079;23;20436;-83
2023/06/16 05:39:43;;;;;;;8.27;7.47;;;16.90;99.90;;;;;;6155101;23;20435;-83
2023/06/16 05:42:13;;;;;;;8.73;8.07;;;17.00;99.90;;;;;;6156750;23;20925;-83
2023/06/16 05:44:41;;;;;;;8.50;7.57;;;17.10;99.90;;;;;;6166685;23;20512;-83
2023/06/16 05:47:08;;;;;;;9.20;7.80;;;17.20;99.90;;;;;;6159677;23;20468;-83
2023/06/16 05:49:36;;;;;;;9.47;8.50;;;17.30;99.90;;;;;;6155000;23;21010;-83
2023/06/16 05:52:05;;;;;;;9.23;8.43;;;17.40;99.90;;;;;;6159652;23;20464;-83
2023/06/16 05:54:32;;;;;;;8.23;7.63;;;17.50;99.90;;;;;;6164983;23;20841;-83
2023/06/16 05:57:00;;;;;;;8.23;7.53;;;17.60;99.90;;;;;;6162610;23;20448;-83
2023/06/16 05:59:29;;;;;;;9.03;7.73;;;17.70;99.90;;;;;;6155488;23;20615;-83
2023/06/16 06:01:56;;;;;;;9.53;8.53;;;17.90;99.90;;;;;;6160431;23;20541;-83
2023/06/16 06:04:28;;;;;;;8.53;7.83;;;18.00;99.90;;;;;;6163753;23;20428;-83
2023/06/16 06:06:55;;;;;;;8.30;7.40;;;18.10;99.90;;;;;;6160566;23;20972;-83
2023/06/16 06:09:22;;;;;;;8.50;7.73;;;18.30;99.90;;;;;;6160787;23;20467;-83
2023/06/16 06:11:50;;;;;;;8.07;7.27;;;18.40;99.90;;;;;;6176017;23;20926;-82
2023/06/16 06:14:18;;;;;;;7.93;7.33;;;18.60;99.90;;;;;;6168647;23;20440;-83
2023/06/16 06:16:46;;;;;;;7.80;7.20;;;18.80;99.90;;;;;;6165964;23;20483;-83
2023/06/16 06:19:13;;;;;;;8.03;7.20;;;19.00;99.90;;;;;;6165862;23;20544;-84
2023/06/16 06:21:40;;;;;;;7.60;6.90;;;19.00;99.90;;;;;;6163627;23;20532;-83
2023/06/16 06:24:07;;;;;;;7.50;6.80;;;19.10;99.90;;;;;;6176454;23;20476;-83
2023/06/16 06:26:38;;;;;;;9.77;7.87;;;19.30;99.90;;;;;;6164717;23;20463;-83
2023/06/16 06:29:05;;;;;;;8.90;7.83;;;19.40;99.90;;;;;;6160416;23;20745;-82
2023/06/16 06:31:32;;;;;;;8.30;7.60;;;19.50;99.90;;;;;;6166915;23;20942;-83
2023/06/16 06:34:01;;;;;;;7.67;6.97;;;19.60;99.90;;;;;;6156447;23;20454;-83
2023/06/16 06:36:28;;;;;;;8.10;7.50;;;19.80;99.90;;;;;;6161070;23;20494;-83
2023/06/16 06:38:56;;;;;;;7.83;7.13;;;19.90;99.90;;;;;;6164667;23;20434;-83
2023/06/16 06:41:24;;;;;;;7.77;7.07;;;20.00;99.90;;;;;;6176081;23;20456;-82
2023/06/16 06:43:51;;;;;;;8.10;7.27;;;20.20;99.90;;;;;;6173964;23;20605;-83
2023/06/16 06:46:18;;;;;;;7.57;6.97;;;20.30;99.90;;;;;;6168273;23;20445;-83
2023/06/16 06:48:45;;;;;;;8.20;6.93;;;20.40;99.90;;;;;;6171935;23;20526;-83
2023/06/16 06:51:14;;;;;;;7.40;6.70;;;20.50;99.90;;;;;;6167776;23;20468;-82
2023/06/16 06:53:41;;;;;;;6.80;6.17;;;20.70;99.90;;;;;;6153577;23;21277;-83
2023/06/16 06:56:09;;;;;;;7.00;6.27;;;20.80;99.00;;;;;;6168997;23;20517;-83
2023/06/16 06:58:36;;;;;;;6.50;6.10;;;21.00;98.40;;;;;;6173922;23;20441;-83
2023/06/16 07:01:03;;;;;;;6.20;5.80;;;21.10;97.50;;;;;;6164742;23;20462;-83
2023/06/16 07:03:30;;;;;;;6.93;6.23;;;21.30;97.50;;;;;;6164094;23;20892;-84
2023/06/16 07:05:57;;;;;;;6.00;5.40;;;21.40;96.90;;;;;;6167660;23;20453;-84
2023/06/16 07:08:26;;;;;;;6.43;5.83;;;21.50;96.50;;;;;;6173608;23;20427;-84
2023/06/16 07:10:53;;;;;;;5.73;5.20;;;21.60;95.20;;;;;;6176870;23;20516;-85
2023/06/16 07:13:20;;;;;;;7.50;6.80;;;21.70;95.60;;;;;;6170537;23;22189;-84
2023/06/16 07:15:47;;;;;;;7.60;5.63;;;21.90;95.20;;;;;;6152942;23;20433;-83
2023/06/16 07:18:15;;;;;;;6.07;5.67;;;21.90;94.90;;;;;;6155260;23;20440;-83
2023/06/16 07:20:42;;;;;;;6.07;5.40;;;22.00;94.10;;;;;;6165169;23;20493;-83
2023/06/16 07:23:09;;;;;;;5.87;5.37;;;22.10;93.80;;;;;;6167054;23;20511;-84
2023/06/16 07:25:38;;;;;;;6.27;5.67;;;22.10;92.50;;;;;;6160013;23;20512;-84
2023/06/16 07:28:06;;;;;;;5.93;5.33;;;22.20;92.30;;;;;;6161630;23;20436;-84
2023/06/16 07:30:33;;;;;;;7.00;5.43;;;22.10;92.30;;;;;;6169616;23;20442;-84
2023/06/16 07:33:00;;;;;;;5.63;5.13;;;22.10;92.50;;;;;;6174049;23;20875;-84
2023/06/16 07:35:27;;;;;;;5.53;5.03;;;22.20;92.50;;;;;;6169719;23;20467;-84
2023/06/16 07:37:54;;;;;;;5.83;5.13;;;22.40;91.90;;;;;;6172034;23;20987;-84
2023/06/16 07:40:21;;;;;;;5.07;4.67;;;22.70;92.10;;;;;;6159973;23;21025;-84
2023/06/16 07:42:50;;;;;;;5.57;5.07;;;23.10;90.70;;;;;;6152588;23;20522;-84
2023/06/16 07:45:17;;;;;;;5.33;4.90;;;23.40;90.30;;;;;;6151343;23;20432;-83
2023/06/16 07:47:46;;;;;;;5.93;4.60;;;23.70;88.50;;;;;;6167843;23;20445;-84
2023/06/16 07:50:13;;;;;;;5.63;4.60;;;24.00;87.90;;;;;;6159569;23;20930;-84
2023/06/16 07:52:41;;;;;;;5.20;4.70;;;24.40;86.70;;;;;;6163272;23;20550;-85
2023/06/16 07:55:10;;;;;;;6.93;4.90;;;25.00;84.50;;;;;;6171110;23;20435;-86
2023/06/16 07:57:38;;;;;;;4.83;4.40;;;25.20;81.60;;;;;;6148363;22;20427;-66
2023/06/16 08:00:11;;;;;;;5.00;4.50;;;25.50;79.40;;;;;;6073041;23;20509;-66
2023/06/16 08:02:39;;;;;;;5.13;4.70;;;25.80;78.40;;;;;;6041620;23;20456;-66
2023/06/16 08:05:07;;;;;;;5.30;4.80;;;26.00;76.00;;;;;;6044027;23;20435;-66
2023/06/16 08:07:35;;;;;;;4.70;4.30;;;26.30;75.40;;;;;;6044156;23;20443;-66
2023/06/16 08:10:02;;;;;;;4.23;3.73;;;26.60;74.40;;;;;;6035048;23;20436;-66
2023/06/16 08:12:29;;;;;;;4.93;4.50;;;26.90;71.80;;;;;;6048319;23;20470;-66
2023/06/16 08:14:56;;;;;;;5.00;4.60;;;27.20;69.50;;;;;;6059579;23;20436;-66
2023/06/16 08:17:25;;;;;;;4.63;4.17;;;27.50;67.30;;;;;;6043596;23;20436;-66
2023/06/16 08:19:53;;;;;;;4.80;4.50;;;27.70;65.30;;;;;;6062117;23;20507;-66
2023/06/16 08:22:20;;;;;;;4.33;4.03;;;27.90;65.10;;;;;;6045057;23;20483;-66
2023/06/16 08:24:47;;;;;;;3.93;3.63;;;28.20;62.90;;;;;;6052002;23;20440;-66
2023/06/16 08:27:15;;;;;;;4.30;3.90;;;28.30;62.30;;;;;;6039461;23;20440;-67
2023/06/16 08:29:42;;;;;;;4.93;4.50;;;28.60;61.90;;;;;;6053656;23;20490;-66
2023/06/16 08:32:10;;;;;;;4.30;3.90;;;28.60;59.60;;;;;;6030288;23;20470;-73
2023/06/16 08:34:38;;;;;;;4.27;3.97;;;28.70;58.30;;;;;;6040533;23;20531;-66
2023/06/16 08:37:07;;;;;;;4.67;3.97;;;28.90;58.40;;;;;;6054653;23;20503;-66
2023/06/16 08:39:34;;;;;;;4.40;4.00;;;28.90;58.10;;;;;;6055102;23;20498;-66
2023/06/16 08:42:01;;;;;;;4.13;3.70;;;29.20;55.80;;;;;;6049972;23;20456;-66
2023/06/16 08:44:31;;;;;;;3.77;3.47;;;29.00;53.50;;;;;;6051180;23;20458;-66
2023/06/16 08:46:59;;;;;;;3.70;3.40;;;29.10;54.00;;;;;;6050022;23;20484;-66
2023/06/16 08:49:26;;;;;;;4.60;3.90;;;29.10;51.80;;;;;;6048284;23;20444;-66
2023/06/16 08:51:57;;;;;;;4.60;4.03;;;29.10;50.60;;;;;;6049074;23;20546;-66
2023/06/16 08:54:26;;;;;;;4.17;3.83;;;29.00;50.50;;;;;;6046997;23;20515;-66
2023/06/16 08:56:54;;;;;;;4.43;4.03;;;28.90;51.00;;;;;;6036286;23;20436;-66
2023/06/16 08:59:23;;;;;;;3.93;3.63;;;28.90;51.70;;;;;;6035499;23;20841;-66
2023/06/16 09:01:51;;;;;;;4.20;3.90;;;28.90;51.60;;;;;;6034934;23;20543;-66
2023/06/16 09:04:18;;;;;;;4.93;3.63;;;29.00;52.20;;;;;;6054510;23;20919;-66
2023/06/16 09:06:45;;;;;;;3.57;3.27;;;29.20;51.50;;;;;;6050863;23;20436;-66
2023/06/16 09:09:14;;;;;;;4.50;4.10;;;29.40;50.00;;;;;;6044190;23;20562;-66
2023/06/16 09:11:42;;;;;;;6.07;4.10;;;29.60;50.50;;;;;;6043391;23;20534;-66
2023/06/16 09:14:11;;;;;;;5.80;3.50;;;29.90;50.30;;;;;;6050842;23;20453;-69
2023/06/16 09:16:40;;;;;;;4.07;3.70;;;30.20;50.20;;;;;;6051270;23;20558;-68
2023/06/16 09:19:08;;;;;;;4.47;3.83;;;30.30;49.90;;;;;;6038726;23;20927;-69
2023/06/16 09:21:35;;;;;;;3.80;3.50;;;30.40;49.50;;;;;;6047185;23;20485;-69
2023/06/16 09:24:03;;;;;;;4.23;3.83;;;30.50;49.40;;;;;;6054740;23;20431;-69
2023/06/16 09:26:36;;;;;;;4.00;3.70;;;30.50;48.60;;;;;;6051217;23;20485;-68
2023/06/16 09:29:20;;;;;;;4.90;3.57;;;30.70;48.70;;;;;;6055926;23;20447;-69
2023/06/16 09:31:47;;;;;;;3.87;3.60;;;30.90;48.90;;;;;;6049630;23;20554;-68
2023/06/16 09:34:15;;;;;;;4.37;3.97;;;31.00;47.80;;;;;;6054255;23;20506;-68
2023/06/16 09:36:41;;;;;;;4.17;3.87;;;31.00;48.40;;;;;;6050008;23;20439;-68
2023/06/16 09:39:21;;;;;;;4.57;4.13;;;31.00;48.60;;;;;;6044853;23;20432;-68
2023/06/16 09:41:50;;;;;;;4.60;4.20;;;31.20;48.60;;;;;;6035649;23;20466;-69
2023/06/16 09:44:17;;;;;;;5.27;4.07;;;31.30;48.30;;;;;;6041121;23;20519;-69
2023/06/16 09:46:44;;;;;;;4.00;3.70;;;31.40;48.10;;;;;;6057223;23;20430;-69
2023/06/16 09:49:20;;;;;;;5.57;3.80;;;31.30;48.00;;;;;;6058402;23;20440;-68
2023/06/16 09:51:51;;;;;;;4.70;4.30;;;31.00;47.50;;;;;;6053596;23;20473;-68
2023/06/16 09:54:20;;;;;;;4.13;3.83;;;30.70;48.20;;;;;;6046382;23;20439;-68
2023/06/16 09:56:49;;;;;;;4.27;3.77;;;30.20;48.00;;;;;;6062873;23;20903;-69
2023/06/16 09:59:18;;;;;;;4.57;4.27;;;29.80;47.80;;;;;;6052159;23;20492;-69
2023/06/16 10:01:47;;;;;;;4.20;3.90;;;29.30;47.80;;;;;;6041415;23;20483;-68
2023/06/16 10:04:16;;;;;;;3.90;3.60;;;29.00;47.90;;;;;;6050976;23;21013;-68
2023/06/16 10:06:51;;;;;;;4.07;3.77;;;29.10;47.90;;;;;;6055311;23;20462;-68
2023/06/16 10:09:21;;;;;;;4.43;4.07;;;29.30;48.20;;;;;;6035751;23;20719;-68
2023/06/16 10:11:50;;;;;;;3.70;3.40;;;29.70;47.50;;;;;;6055435;23;20475;-69
2023/06/16 10:14:19;;;;;;;4.60;4.20;;;29.90;46.00;;;;;;6057669;23;20438;-69
2023/06/16 10:16:50;;;;;;;4.63;4.07;;;30.30;45.30;;;;;;6059174;23;20962;-68
2023/06/16 10:19:19;;;;;;;5.07;3.73;;;30.50;44.90;;;;;;6051896;23;20676;-69
2023/06/16 10:21:47;;;;;;;5.20;3.90;;;30.80;45.50;;;;;;6039891;23;20444;-69
2023/06/16 10:24:15;;;;;;;3.87;3.50;;;31.00;44.70;;;;;;6052082;23;20447;-69
2023/06/16 10:26:43;;;;;;;4.33;3.80;;;31.00;43.10;;;;;;6046101;23;20463;-68
2023/06/16 10:29:16;;;;;;;4.30;4.00;;;31.00;44.20;;;;;;6044311;23;20472;-68
2023/06/16 10:31:45;;;;;;;4.53;4.13;;;31.20;44.40;;;;;;6050589;23;20459;-68
2023/06/16 10:34:23;;;;;;;4.93;4.00;;;31.20;44.80;;;;;;6047724;23;20478;-69
2023/06/16 10:36:52;;;;;;;4.37;3.80;;;31.10;43.50;;;;;;6046359;23;21018;-69
2023/06/16 10:39:19;;;;;;;4.10;3.80;;;30.80;43.30;;;;;;6049858;23;20435;-68
2023/06/16 10:41:51;;;;;;;4.17;3.87;;;30.30;43.00;;;;;;6051351;23;20440;-68
2023/06/16 10:44:29;;;;;;;4.00;3.60;;;30.10;44.10;;;;;;6057376;23;20959;-69
2023/06/16 10:47:35;;;;;;;4.07;3.67;;;30.40;44.00;;;;;;6042754;23;20481;-69
2023/06/16 10:50:04;;;;;;;4.50;4.10;;;30.80;44.70;;;;;;6047812;23;20949;-68
2023/06/16 10:52:33;;;;;;;3.93;3.63;;;31.20;43.50;;;;;;6043428;23;20464;-68
2023/06/16 10:55:17;;;;;;;4.37;3.67;;;31.40;43.10;;;;;;6045680;23;20444;-69
2023/06/16 10:57:46;;;;;;;4.60;4.20;;;31.70;42.40;;;;;;6037424;23;20447;-69
2023/06/16 11:00:16;;;;;;;4.13;3.40;;;31.90;42.10;;;;;;6049854;23;20542;-69
2023/06/16 11:02:51;;;;;;;4.90;4.27;;;32.20;42.40;;;;;;6034486;23;20442;-68
2023/06/16 11:05:22;;;;;;;4.50;3.87;;;32.20;41.30;;;;;;6036686;23;20446;-69
2023/06/16 11:08:13;;;;;;;3.90;3.60;;;32.00;41.30;;;;;;6040929;23;20443;-69
2023/06/16 11:10:52;;;;;;;3.70;3.50;;;32.00;41.30;;;;;;6040259;23;20522;-69
2023/06/16 11:13:22;;;;;;;4.53;4.13;;;32.20;41.80;;;;;;6045841;23;20473;-69
2023/06/16 11:15:54;;;;;;;3.90;3.60;;;32.50;41.00;;;;;;6047420;23;21035;-68
2023/06/16 11:18:24;;;;;;;4.53;4.13;;;32.20;41.00;;;;;;6062114;23;20850;-68
2023/06/16 11:20:55;;;;;;;3.90;3.60;;;31.80;41.30;;;;;;6051781;23;20460;-68
2023/06/16 11:23:22;;;;;;;4.43;4.03;;;31.60;41.70;;;;;;6051192;23;20519;-68
2023/06/16 11:25:50;;;;;;;6.20;3.70;;;31.60;41.90;;;;;;6061402;23;20710;-69
2023/06/16 11:28:20;;;;;;;3.90;3.50;;;31.70;41.90;;;;;;6049345;23;21032;-68
2023/06/16 11:30:47;;;;;;;4.40;4.13;;;32.00;42.10;;;;;;6046034;23;20527;-68
2023/06/16 11:33:19;;;;;;;6.03;4.10;;;32.00;41.80;;;;;;6033387;23;20588;-68
2023/06/16 11:35:46;;;;;;;5.80;4.40;;;31.80;41.70;;;;;;6052904;23;20518;-69
2023/06/16 11:38:14;;;;;;;4.33;3.73;;;31.20;41.20;;;;;;6057923;23;20427;-68
2023/06/16 11:40:42;;;;;;;4.63;4.20;;;30.80;42.50;;;;;;6044830;23;20460;-69
2023/06/16 11:43:10;;;;;;;4.57;4.17;;;30.80;42.70;;;;;;6047318;23;20475;-69
2023/06/16 11:45:38;;;;;;;4.10;3.80;;;31.00;42.30;;;;;;6054027;23;20462;-68
2023/06/16 11:48:07;;;;;;;4.13;3.80;;;31.40;41.60;;;;;;6046652;23;20439;-69
2023/06/16 11:50:37;;;;;;;4.93;4.40;;;31.60;41.50;;;;;;6049880;23;20464;-69
2023/06/16 11:53:04;;;;;;;4.27;3.97;;;31.70;41.30;;;;;;6060834;23;20946;-68
2023/06/16 11:55:31;;;;;;;4.40;4.00;;;32.00;42.00;;;;;;6058193;23;20606;-69
2023/06/16 11:57:59;;;;;;;5.50;3.93;;;32.40;41.70;;;;;;6045461;23;20455;-68
2023/06/16 12:00:27;;;;;;;4.50;4.13;;;32.60;40.80;;;;;;6057382;23;20455;-69
2023/06/16 12:02:54;;;;;;;4.23;3.93;;;32.80;41.20;;;;;;6040193;23;20428;-69
2023/06/16 12:05:24;;;;;;;4.73;4.33;;;33.00;40.50;;;;;;6052697;23;20940;-69
2023/06/16 12:07:53;;;;;;;4.40;3.90;;;33.30;40.40;;;;;;6048658;23;20444;-69
2023/06/16 12:10:20;;;;;;;4.77;4.30;;;33.50;40.10;;;;;;6065397;23;21033;-69
2023/06/16 12:12:48;;;;;;;4.70;4.30;;;33.60;39.30;;;;;;6049514;23;20471;-69
2023/06/16 12:15:17;;;;;;;4.77;4.27;;;33.40;40.10;;;;;;6042338;23;21015;-68
2023/06/16 12:17:44;;;;;;;5.37;4.43;;;33.50;39.70;;;;;;6039599;23;20523;-68
2023/06/16 12:20:13;;;;;;;4.47;4.17;;;33.80;39.80;;;;;;6035500;23;20459;-69
2023/06/16 12:22:40;;;;;;;4.90;4.10;;;34.10;39.80;;;;;;6039828;23;20432;-69
2023/06/16 12:25:13;;;;;;;4.40;4.10;;;34.50;39.20;;;;;;6039141;23;20518;-77
2023/06/16 12:27:43;;;;;;;4.73;4.20;;;34.60;38.70;;;;;;6036556;23;20436;-69
2023/06/16 12:30:12;;;;;;;4.80;4.50;;;34.60;38.10;;;;;;6036074;23;20467;-69
2023/06/16 12:32:41;;;;;;;5.10;4.50;;;34.40;37.50;;;;;;6044034;23;20451;-69
2023/06/16 12:35:09;;;;;;;4.43;4.13;;;33.80;38.20;;;;;;6052263;23;20436;-69
2023/06/16 12:37:39;;;;;;;5.20;4.70;;;33.10;39.40;;;;;;6045520;23;20490;-69
2023/06/16 12:40:10;;;;;;;5.10;4.70;;;33.10;40.20;;;;;;6053094;23;20454;-69
2023/06/16 12:42:39;;;;;;;4.93;4.43;;;33.30;39.10;;;;;;6031400;23;20454;-70
2023/06/16 12:45:07;;;;;;;4.73;4.40;;;33.40;40.20;;;;;;6048130;23;20441;-68
2023/06/16 12:47:36;;;;;;;4.90;4.43;;;33.60;38.70;;;;;;6049588;23;20514;-67
2023/06/16 12:50:05;;;;;;;5.40;4.90;;;33.40;39.30;;;;;;6036002;23;20789;-66
2023/06/16 12:52:32;;;;;;;5.53;5.03;;;33.10;39.90;;;;;;6046054;23;20797;-66
2023/06/16 12:55:00;;;;;;;4.40;3.97;;;32.70;40.20;;;;;;6042197;23;20443;-67